Time,TemperatureF,DewpointF,PressureIn,WindDirection,WindDirectionDegrees,WindSpeedMPH,WindSpeedGustMPH,Humidity,HourlyPrecipIn,Conditions,Clouds,dailyrainin,SoftwareType,DateUTC
2013-06-02 00:01:00,67.7,65.0,29.68,WSW,238,0.0,0.0,91,0.00,,-RA,0.00,VWS V14.00,2013-06-02 04:01:00,
2013-06-02 00:06:00,67.7,65.0,29.68,WSW,238,1.0,3.0,91,0.00,,-RA,0.00,VWS V14.00,2013-06-02 04:06:00,
2013-06-02 00:21:00,67.8,65.1,29.67,WSW,238,2.0,2.0,91,0.01,,-RA,0.01,VWS V14.00,2013-06-02 04:21:00,
2013-06-02 00:26:00,67.9,65.2,29.68,WSW,238,0.0,3.0,91,0.04,,-RA,0.04,VWS V14.00,2013-06-02 04:26:00,
2013-06-02 00:31:00,67.9,65.2,29.68,WSW,238,0.0,0.0,91,0.08,,RA,0.08,VWS V14.00,2013-06-02 04:31:00,
2013-06-02 00:36:00,67.9,65.5,29.67,WSW,238,1.0,2.0,92,0.08,,RA,0.08,VWS V14.00,2013-06-02 04:36:00,
2013-06-02 00:41:00,67.8,65.4,29.68,WSW,238,0.0,2.0,92,0.08,,RA,0.08,VWS V14.00,2013-06-02 04:41:00,
2013-06-02 00:46:00,67.7,65.3,29.68,SSW,200,1.0,3.0,92,0.08,,RA,0.08,VWS V14.00,2013-06-02 04:46:00,
2013-06-02 00:51:00,67.7,65.3,29.67,South,170,2.0,3.0,92,0.08,,RA,0.08,VWS V14.00,2013-06-02 04:51:00,
2013-06-02 00:56:00,67.6,65.2,29.67,South,188,0.0,4.0,92,0.08,,RA,0.08,VWS V14.00,2013-06-02 04:56:00,
2013-06-02 01:01:00,67.5,65.1,29.67,South,189,0.0,0.0,92,0.08,,OVC050,0.08,VWS V14.00,2013-06-02 05:01:00,
2013-06-02 01:06:00,67.4,65.0,29.67,South,189,1.0,2.0,92,0.08,,OVC050,0.08,VWS V14.00,2013-06-02 05:06:00,
2013-06-02 01:11:00,67.4,65.0,29.67,South,189,0.0,1.0,92,0.08,,OVC050,0.08,VWS V14.00,2013-06-02 05:11:00,
2013-06-02 01:16:00,67.2,64.8,29.66,South,188,0.0,3.0,92,0.08,,OVC050,0.08,VWS V14.00,2013-06-02 05:16:00,
2013-06-02 01:21:00,67.0,64.6,29.66,South,189,0.0,0.0,92,0.08,,OVC050,0.08,VWS V14.00,2013-06-02 05:21:00,
2013-06-02 01:26:00,66.8,64.4,29.67,South,189,0.0,5.0,92,0.08,,OVC050,0.08,VWS V14.00,2013-06-02 05:26:00,
2013-06-02 01:31:00,66.7,64.3,29.66,South,188,0.0,0.0,92,0.01,,OVC050,0.08,VWS V14.00,2013-06-02 05:31:00,
2013-06-02 01:36:00,66.6,64.5,29.66,South,189,1.0,2.0,93,0.01,,OVC050,0.08,VWS V14.00,2013-06-02 05:36:00,
2013-06-02 01:41:00,66.5,64.4,29.66,SSW,196,0.0,3.0,93,0.00,,OVC050,0.08,VWS V14.00,2013-06-02 05:41:00,
2013-06-02 01:46:00,66.5,64.4,29.66,South,180,0.0,6.0,93,0.00,,OVC050,0.08,VWS V14.00,2013-06-02 05:46:00,
2013-06-02 01:51:00,66.4,64.3,29.66,SW,225,0.0,1.0,93,0.00,,OVC050,0.08,VWS V14.00,2013-06-02 05:51:00,
2013-06-02 01:56:00,66.3,64.2,29.66,SW,222,5.0,5.0,93,0.00,,OVC050,0.08,VWS V14.00,2013-06-02 05:56:00,
2013-06-02 02:01:00,66.3,64.2,29.66,SW,234,1.0,4.0,93,0.00,,CLR,0.08,VWS V14.00,2013-06-02 06:01:00,
2013-06-02 02:06:00,66.2,64.1,29.67,WNW,286,0.0,4.0,93,0.00,,CLR,0.08,VWS V14.00,2013-06-02 06:06:00,
2013-06-02 02:11:00,66.1,64.0,29.67,SSW,195,0.0,10.0,93,0.00,,CLR,0.08,VWS V14.00,2013-06-02 06:11:00,
2013-06-02 02:16:00,65.9,63.8,29.66,SSE,159,2.0,10.0,93,0.00,,CLR,0.08,VWS V14.00,2013-06-02 06:16:00,
2013-06-02 02:21:00,65.8,63.7,29.66,WSW,240,0.0,2.0,93,0.00,,CLR,0.08,VWS V14.00,2013-06-02 06:21:00,
2013-06-02 02:26:00,65.6,63.5,29.66,NW,310,0.0,6.0,93,0.00,,CLR,0.08,VWS V14.00,2013-06-02 06:26:00,
2013-06-02 02:31:00,65.5,63.4,29.66,SSW,213,1.0,1.0,93,0.00,,CLR,0.08,VWS V14.00,2013-06-02 06:31:00,
2013-06-02 02:36:00,65.3,63.2,29.66,WSW,254,4.0,6.0,93,0.00,,CLR,0.08,VWS V14.00,2013-06-02 06:36:00,
2013-06-02 02:41:00,65.3,63.2,29.66,West,267,1.0,5.0,93,0.00,,CLR,0.08,VWS V14.00,2013-06-02 06:41:00,
2013-06-02 02:46:00,65.2,63.1,29.67,WSW,248,0.0,5.0,93,0.00,,CLR,0.08,VWS V14.00,2013-06-02 06:46:00,
2013-06-02 02:51:00,65.2,63.1,29.67,SW,236,0.0,3.0,93,0.00,,CLR,0.08,VWS V14.00,2013-06-02 06:51:00,
2013-06-02 02:56:00,65.2,63.1,29.67,SW,232,0.0,5.0,93,0.00,,CLR,0.08,VWS V14.00,2013-06-02 06:56:00,
2013-06-02 03:01:00,65.0,62.9,29.67,WSW,242,0.0,6.0,93,0.00,,FEW024,0.08,VWS V14.00,2013-06-02 07:01:00,
2013-06-02 03:06:00,64.9,62.8,29.67,West,281,1.0,6.0,93,0.00,,FEW024,0.08,VWS V14.00,2013-06-02 07:06:00,
2013-06-02 03:11:00,64.8,62.7,29.67,South,186,0.0,5.0,93,0.00,,FEW024,0.08,VWS V14.00,2013-06-02 07:11:00,
2013-06-02 03:16:00,64.7,62.6,29.67,SSW,211,0.0,7.0,93,0.00,,FEW024,0.08,VWS V14.00,2013-06-02 07:16:00,
2013-06-02 03:20:00,64.7,62.6,29.66,WNW,293,0.0,3.0,93,0.00,,FEW024,0.08,VWS V14.00,2013-06-02 07:20:00,
2013-06-02 03:25:00,64.6,62.5,29.66,SW,229,2.0,6.0,93,0.00,,FEW024,0.08,VWS V14.00,2013-06-02 07:25:00,
2013-06-02 03:30:00,64.6,62.5,29.67,SW,225,2.0,2.0,93,0.00,,FEW024,0.08,VWS V14.00,2013-06-02 07:30:00,
2013-06-02 03:35:00,64.5,62.4,29.67,SSW,196,1.0,6.0,93,0.00,,FEW024,0.08,VWS V14.00,2013-06-02 07:35:00,
2013-06-02 03:40:00,64.5,62.4,29.67,NW,307,0.0,7.0,93,0.00,,FEW024,0.08,VWS V14.00,2013-06-02 07:40:00,
2013-06-02 03:45:00,64.4,62.3,29.67,West,265,0.0,7.0,93,0.00,,FEW024,0.08,VWS V14.00,2013-06-02 07:45:00,
2013-06-02 03:50:00,64.4,62.0,29.67,WSW,240,6.0,6.0,92,0.00,,FEW024,0.08,VWS V14.00,2013-06-02 07:50:00,
2013-06-02 03:55:00,64.4,62.0,29.66,South,188,0.0,6.0,92,0.00,,FEW024,0.08,VWS V14.00,2013-06-02 07:55:00,
2013-06-02 04:00:00,64.4,62.0,29.66,WSW,253,0.0,0.0,92,0.00,,FEW070,0.08,VWS V14.00,2013-06-02 08:00:00,
2013-06-02 04:05:00,64.3,61.9,29.66,WSW,245,0.0,7.0,92,0.00,,FEW070,0.08,VWS V14.00,2013-06-02 08:05:00,
2013-06-02 04:10:00,64.3,61.9,29.66,SW,215,0.0,4.0,92,0.00,,FEW070,0.08,VWS V14.00,2013-06-02 08:10:00,
2013-06-02 04:15:00,64.2,61.8,29.66,SW,217,0.0,4.0,92,0.00,,FEW070,0.08,VWS V14.00,2013-06-02 08:15:00,
2013-06-02 04:20:00,64.2,61.8,29.67,South,186,0.0,5.0,92,0.00,,FEW070,0.08,VWS V14.00,2013-06-02 08:20:00,
2013-06-02 04:25:00,64.1,61.7,29.67,SW,214,1.0,5.0,92,0.00,,FEW070,0.08,VWS V14.00,2013-06-02 08:25:00,
2013-06-02 04:30:00,64.1,62.0,29.67,SSW,204,0.0,5.0,93,0.00,,FEW070,0.08,VWS V14.00,2013-06-02 08:30:00,
2013-06-02 04:35:00,64.1,62.0,29.67,SSW,203,0.0,5.0,93,0.00,,FEW070,0.08,VWS V14.00,2013-06-02 08:35:00,
2013-06-02 04:40:00,64.0,61.9,29.67,SW,216,0.0,4.0,93,0.00,,FEW070,0.08,VWS V14.00,2013-06-02 08:40:00,
2013-06-02 04:45:00,64.0,61.9,29.67,WSW,246,0.0,6.0,93,0.00,,FEW070,0.08,VWS V14.00,2013-06-02 08:45:00,
2013-06-02 04:50:00,64.0,61.9,29.67,WSW,238,4.0,4.0,93,0.00,,FEW070,0.08,VWS V14.00,2013-06-02 08:50:00,
2013-06-02 04:55:00,63.9,61.8,29.67,WSW,251,0.0,7.0,93,0.00,,FEW070,0.08,VWS V14.00,2013-06-02 08:55:00,
2013-06-02 05:00:00,63.9,61.8,29.67,SW,227,0.0,1.0,93,0.00,,FEW017,0.08,VWS V14.00,2013-06-02 09:00:00,
2013-06-02 05:05:00,63.9,61.8,29.67,SW,227,0.0,6.0,93,0.00,,FEW017,0.08,VWS V14.00,2013-06-02 09:05:00,
2013-06-02 05:10:00,63.8,61.7,29.67,SW,218,2.0,2.0,93,0.00,,FEW017,0.08,VWS V14.00,2013-06-02 09:10:00,
2013-06-02 05:15:00,63.6,61.2,29.68,West,272,4.0,7.0,92,0.00,,FEW017,0.08,VWS V14.00,2013-06-02 09:15:00,
2013-06-02 05:20:00,63.6,61.2,29.68,West,272,0.0,2.0,92,0.00,,FEW017,0.08,VWS V14.00,2013-06-02 09:20:00,
2013-06-02 05:25:00,63.6,61.2,29.68,SW,226,0.0,4.0,92,0.00,,FEW017,0.08,VWS V14.00,2013-06-02 09:25:00,
2013-06-02 05:30:00,63.5,61.1,29.68,WSW,237,0.0,1.0,92,0.00,,FEW017,0.08,VWS V14.00,2013-06-02 09:30:00,
2013-06-02 05:35:00,63.4,60.7,29.69,West,279,0.0,6.0,91,0.00,,FEW017,0.08,VWS V14.00,2013-06-02 09:35:00,
2013-06-02 05:40:00,63.2,60.5,29.69,WSW,249,0.0,4.0,91,0.00,,FEW017,0.08,VWS V14.00,2013-06-02 09:40:00,
2013-06-02 05:45:00,62.9,60.2,29.69,WSW,248,4.0,5.0,91,0.00,,FEW017,0.08,VWS V14.00,2013-06-02 09:45:00,
2013-06-02 05:50:00,62.6,59.6,29.69,WNW,292,2.0,4.0,90,0.00,,FEW017,0.08,VWS V14.00,2013-06-02 09:50:00,
2013-06-02 05:55:00,62.3,59.3,29.69,West,275,2.0,6.0,90,0.00,,FEW017,0.08,VWS V14.00,2013-06-02 09:55:00,
2013-06-02 06:00:00,62.2,59.2,29.69,South,190,0.0,4.0,90,0.00,,CLR,0.08,VWS V14.00,2013-06-02 10:00:00,
2013-06-02 06:05:00,62.0,59.0,29.69,SSW,205,0.0,4.0,90,0.00,,CLR,0.08,VWS V14.00,2013-06-02 10:05:00,
2013-06-02 06:10:00,61.9,58.9,29.70,SSE,163,0.0,1.0,90,0.00,,CLR,0.08,VWS V14.00,2013-06-02 10:10:00,
2013-06-02 06:15:00,61.8,58.8,29.70,SW,217,0.0,1.0,90,0.00,,CLR,0.08,VWS V14.00,2013-06-02 10:15:00,
2013-06-02 06:20:00,61.7,58.7,29.70,WSW,253,5.0,6.0,90,0.00,,CLR,0.08,VWS V14.00,2013-06-02 10:20:00,
2013-06-02 06:25:00,61.6,59.0,29.70,SSW,204,4.0,6.0,91,0.00,,CLR,0.08,VWS V14.00,2013-06-02 10:25:00,
2013-06-02 06:30:00,61.6,59.0,29.71,SSW,206,0.0,3.0,91,0.00,,CLR,0.08,VWS V14.00,2013-06-02 10:30:00,
2013-06-02 06:35:00,61.5,58.8,29.71,SW,229,0.0,3.0,91,0.00,,CLR,0.08,VWS V14.00,2013-06-02 10:35:00,
2013-06-02 06:40:00,61.6,59.0,29.71,SSW,211,6.0,6.0,91,0.00,,CLR,0.08,VWS V14.00,2013-06-02 10:40:00,
2013-06-02 06:45:00,61.7,59.0,29.71,WSW,248,0.0,7.0,91,0.00,,CLR,0.08,VWS V14.00,2013-06-02 10:45:00,
2013-06-02 06:50:00,61.8,59.2,29.71,SSW,211,0.0,4.0,91,0.00,,CLR,0.08,VWS V14.00,2013-06-02 10:50:00,
2013-06-02 06:55:00,61.8,59.2,29.72,SW,214,0.0,7.0,91,0.00,,CLR,0.08,VWS V14.00,2013-06-02 10:55:00,
2013-06-02 07:00:00,61.9,59.2,29.72,SSW,206,0.0,5.0,91,0.00,,BKN016,0.08,VWS V14.00,2013-06-02 11:00:00,
2013-06-02 07:05:00,62.0,59.3,29.72,South,188,6.0,7.0,91,0.00,,BKN016,0.08,VWS V14.00,2013-06-02 11:05:00,
2013-06-02 07:10:00,62.0,59.3,29.72,SSW,199,1.0,10.0,91,0.00,,BKN016,0.08,VWS V14.00,2013-06-02 11:10:00,
2013-06-02 07:15:00,62.0,59.0,29.72,West,281,0.0,10.0,90,0.00,,BKN016,0.08,VWS V14.00,2013-06-02 11:15:00,
2013-06-02 07:20:00,62.1,59.1,29.72,West,259,4.0,5.0,90,0.00,,BKN016,0.08,VWS V14.00,2013-06-02 11:20:00,
2013-06-02 07:25:00,62.1,59.1,29.72,NW,304,0.0,5.0,90,0.00,,BKN016,0.08,VWS V14.00,2013-06-02 11:25:00,
2013-06-02 07:30:00,62.2,59.2,29.72,WSW,250,0.0,3.0,90,0.00,,BKN016,0.08,VWS V14.00,2013-06-02 11:30:00,
2013-06-02 07:35:00,62.3,59.3,29.73,SSW,198,0.0,7.0,90,0.00,,BKN016,0.08,VWS V14.00,2013-06-02 11:35:00,
2013-06-02 07:40:00,62.6,59.6,29.73,SW,234,0.0,6.0,90,0.00,,BKN016,0.08,VWS V14.00,2013-06-02 11:40:00,
2013-06-02 07:45:00,62.7,59.7,29.73,West,279,3.0,7.0,90,0.00,,BKN016,0.08,VWS V14.00,2013-06-02 11:45:00,
2013-06-02 07:50:00,62.8,59.5,29.73,SW,231,0.0,7.0,89,0.00,,BKN016,0.08,VWS V14.00,2013-06-02 11:50:00,
2013-06-02 07:55:00,62.9,59.6,29.73,WSW,237,4.0,7.0,89,0.00,,BKN016,0.08,VWS V14.00,2013-06-02 11:55:00,
2013-06-02 08:00:00,63.0,59.7,29.73,SW,229,0.0,6.0,89,0.00,,OVC024,0.08,VWS V14.00,2013-06-02 12:00:00,
2013-06-02 08:05:00,63.1,59.8,29.73,WSW,244,3.0,8.0,89,0.00,,OVC024,0.08,VWS V14.00,2013-06-02 12:05:00,
2013-06-02 08:10:00,63.3,60.0,29.73,WNW,287,4.0,11.0,89,0.00,,OVC024,0.08,VWS V14.00,2013-06-02 12:10:00,
2013-06-02 08:15:00,63.4,60.1,29.73,SSW,200,3.0,11.0,89,0.00,,OVC024,0.08,VWS V14.00,2013-06-02 12:15:00,
2013-06-02 08:20:00,63.4,59.8,29.73,WNW,298,4.0,9.0,88,0.00,,OVC024,0.08,VWS V14.00,2013-06-02 12:20:00,
2013-06-02 08:25:00,63.7,60.4,29.74,WSW,251,0.0,10.0,89,0.00,,OVC024,0.08,VWS V14.00,2013-06-02 12:25:00,
2013-06-02 08:30:00,63.9,60.3,29.74,West,265,0.0,4.0,88,0.00,,OVC024,0.08,VWS V14.00,2013-06-02 12:30:00,
2013-06-02 08:35:00,64.0,60.1,29.74,WSW,238,0.0,12.0,87,0.00,,OVC024,0.08,VWS V14.00,2013-06-02 12:35:00,
2013-06-02 08:40:00,64.1,60.2,29.74,NW,311,5.0,5.0,87,0.00,,OVC024,0.08,VWS V14.00,2013-06-02 12:40:00,
2013-06-02 08:45:00,64.3,60.3,29.74,SW,226,4.0,5.0,87,0.00,,OVC024,0.08,VWS V14.00,2013-06-02 12:45:00,
2013-06-02 08:50:00,64.4,60.1,29.74,WSW,237,0.0,6.0,86,0.00,,OVC024,0.08,VWS V14.00,2013-06-02 12:50:00,
2013-06-02 08:55:00,64.7,60.4,29.75,South,186,3.0,7.0,86,0.00,,OVC024,0.08,VWS V14.00,2013-06-02 12:55:00,
2013-06-02 09:00:00,64.9,60.6,29.75,WNW,293,4.0,12.0,86,0.00,,OVC036,0.08,VWS V14.00,2013-06-02 13:00:00,
2013-06-02 09:05:00,64.9,60.3,29.75,WSW,240,0.0,12.0,85,0.00,,OVC036,0.08,VWS V14.00,2013-06-02 13:05:00,
2013-06-02 09:10:00,65.0,60.4,29.75,WNW,284,0.0,4.0,85,0.00,,OVC036,0.08,VWS V14.00,2013-06-02 13:10:00,
2013-06-02 09:15:00,65.1,60.5,29.75,SW,221,1.0,7.0,85,0.00,,OVC036,0.08,VWS V14.00,2013-06-02 13:15:00,
2013-06-02 09:20:00,65.3,60.7,29.75,SW,215,0.0,3.0,85,0.00,,OVC036,0.08,VWS V14.00,2013-06-02 13:20:00,
2013-06-02 09:25:00,65.7,61.1,29.75,West,275,0.0,7.0,85,0.00,,OVC036,0.08,VWS V14.00,2013-06-02 13:25:00,
2013-06-02 09:30:00,66.2,61.6,29.75,WSW,253,0.0,0.0,85,0.00,,OVC036,0.08,VWS V14.00,2013-06-02 13:30:00,
2013-06-02 09:35:00,66.8,61.5,29.75,NW,307,4.0,13.0,83,0.00,,OVC036,0.08,VWS V14.00,2013-06-02 13:35:00,
2013-06-02 09:40:00,67.3,61.3,29.75,WNW,284,1.0,15.0,81,0.00,,OVC036,0.08,VWS V14.00,2013-06-02 13:40:00,
2013-06-02 09:45:00,67.6,61.6,29.75,West,270,3.0,15.0,81,0.00,,OVC036,0.08,VWS V14.00,2013-06-02 13:45:00,
2013-06-02 09:50:00,67.6,61.2,29.75,West,263,8.0,8.0,80,0.00,,OVC036,0.08,VWS V14.00,2013-06-02 13:50:00,
2013-06-02 09:55:00,67.6,60.9,29.75,SSW,209,0.0,9.0,79,0.00,,OVC036,0.08,VWS V14.00,2013-06-02 13:55:00,
2013-06-02 10:00:00,67.9,61.2,29.75,SW,233,3.0,12.0,79,0.00,,OVC047,0.08,VWS V14.00,2013-06-02 14:00:00,
2013-06-02 10:05:00,68.3,61.2,29.75,WSW,240,4.0,12.0,78,0.00,,OVC047,0.08,VWS V14.00,2013-06-02 14:05:00,
2013-06-02 10:10:00,68.2,61.1,29.76,WNW,291,2.0,4.0,78,0.00,,OVC047,0.08,VWS V14.00,2013-06-02 14:10:00,
2013-06-02 10:15:00,68.0,61.2,29.76,WSW,244,4.0,10.0,79,0.00,,OVC047,0.08,VWS V14.00,2013-06-02 14:15:00,
2013-06-02 10:20:00,68.2,61.1,29.76,SSW,211,1.0,13.0,78,0.00,,OVC047,0.08,VWS V14.00,2013-06-02 14:20:00,
2013-06-02 10:25:00,67.9,60.1,29.77,SSW,205,0.0,15.0,76,0.00,,OVC047,0.08,VWS V14.00,2013-06-02 14:25:00,
2013-06-02 10:30:00,68.0,60.9,29.76,West,261,1.0,15.0,78,0.00,,BKN047,0.08,VWS V14.00,2013-06-02 14:30:00,
2013-06-02 10:35:00,68.3,60.5,29.76,WSW,257,4.0,15.0,76,0.00,,BKN047,0.08,VWS V14.00,2013-06-02 14:35:00,
2013-06-02 10:40:00,68.1,60.6,29.76,West,279,0.0,5.0,77,0.00,,BKN047,0.08,VWS V14.00,2013-06-02 14:40:00,
2013-06-02 10:45:00,68.5,61.0,29.76,NW,317,5.0,10.0,77,0.00,,BKN047,0.08,VWS V14.00,2013-06-02 14:45:00,
2013-06-02 10:50:00,68.8,60.2,29.76,SSW,208,4.0,9.0,74,0.00,,BKN047,0.08,VWS V14.00,2013-06-02 14:50:00,
2013-06-02 10:55:00,69.3,61.4,29.76,WSW,257,0.0,13.0,76,0.00,,BKN047,0.08,VWS V14.00,2013-06-02 14:55:00,
2013-06-02 11:00:00,70.0,61.7,29.77,West,261,0.0,6.0,75,0.00,,BKN060,0.08,VWS V14.00,2013-06-02 15:00:00,
2013-06-02 11:05:00,70.3,61.6,29.77,WSW,244,0.0,9.0,74,0.00,,BKN060,0.08,VWS V14.00,2013-06-02 15:05:00,
2013-06-02 11:10:00,70.4,62.1,29.77,WSW,244,0.0,1.0,75,0.00,,BKN060,0.08,VWS V14.00,2013-06-02 15:10:00,
2013-06-02 11:15:00,70.5,61.0,29.77,SW,223,4.0,11.0,72,0.00,,BKN060,0.08,VWS V14.00,2013-06-02 15:15:00,
2013-06-02 11:20:00,69.9,60.5,29.77,West,281,0.0,3.0,72,0.00,,BKN060,0.08,VWS V14.00,2013-06-02 15:20:00,
2013-06-02 11:25:00,69.6,61.7,29.77,SSW,212,3.0,4.0,76,0.00,,BKN060,0.08,VWS V14.00,2013-06-02 15:25:00,
2013-06-02 11:30:00,69.3,60.3,29.77,West,267,0.0,9.0,73,0.00,,BKN060,0.08,VWS V14.00,2013-06-02 15:30:00,
2013-06-02 11:35:00,69.2,60.6,29.77,WNW,298,1.0,11.0,74,0.00,,BKN060,0.08,VWS V14.00,2013-06-02 15:35:00,
2013-06-02 11:40:00,69.8,61.9,29.78,WSW,254,2.0,7.0,76,0.00,,BKN060,0.08,VWS V14.00,2013-06-02 15:40:00,
2013-06-02 11:45:00,70.7,61.2,29.78,South,180,0.0,7.0,72,0.00,,BKN060,0.08,VWS V14.00,2013-06-02 15:45:00,
2013-06-02 11:50:00,70.6,61.1,29.78,WSW,244,0.0,5.0,72,0.00,,BKN060,0.08,VWS V14.00,2013-06-02 15:50:00,
2013-06-02 11:55:00,71.1,62.4,29.78,SE,137,0.0,17.0,74,0.00,,BKN060,0.08,VWS V14.00,2013-06-02 15:55:00,
2013-06-02 12:00:00,71.3,61.4,29.78,West,260,3.0,7.0,71,0.00,,BKN060,0.08,VWS V14.00,2013-06-02 16:00:00,
2013-06-02 12:05:00,70.8,60.9,29.78,SW,234,3.0,10.0,71,0.00,,BKN060,0.08,VWS V14.00,2013-06-02 16:05:00,
2013-06-02 12:10:00,70.2,60.8,29.79,West,276,0.0,1.0,72,0.00,,BKN060,0.08,VWS V14.00,2013-06-02 16:10:00,
2013-06-02 12:15:00,69.4,60.0,29.79,SW,215,0.0,11.0,72,0.00,,BKN060,0.08,VWS V14.00,2013-06-02 16:15:00,
2013-06-02 12:20:00,69.1,60.1,29.79,South,179,2.0,2.0,73,0.00,,BKN060,0.08,VWS V14.00,2013-06-02 16:20:00,
2013-06-02 12:25:00,68.9,59.9,29.80,SW,219,1.0,13.0,73,0.00,,BKN060,0.08,VWS V14.00,2013-06-02 16:25:00,
2013-06-02 12:30:00,68.7,59.7,29.80,West,277,0.0,6.0,73,0.00,,BKN060,0.08,VWS V14.00,2013-06-02 16:30:00,
2013-06-02 12:35:00,68.5,59.5,29.80,WSW,248,2.0,11.0,73,0.00,,BKN060,0.08,VWS V14.00,2013-06-02 16:35:00,
2013-06-02 12:40:00,68.5,59.9,29.80,WSW,250,2.0,4.0,74,0.00,,BKN060,0.08,VWS V14.00,2013-06-02 16:40:00,
2013-06-02 12:45:00,68.3,59.7,29.80,WSW,244,0.0,6.0,74,0.00,,BKN060,0.08,VWS V14.00,2013-06-02 16:45:00,
2013-06-02 12:50:00,68.4,60.9,29.80,WSW,257,2.0,4.0,77,0.00,,BKN060,0.08,VWS V14.00,2013-06-02 16:50:00,
2013-06-02 12:55:00,69.8,61.5,29.80,West,277,1.0,12.0,75,0.00,,BKN060,0.08,VWS V14.00,2013-06-02 16:55:00,
2013-06-02 13:00:00,70.8,61.7,29.80,WSW,257,0.0,5.0,73,0.00,,OVC060,0.08,VWS V14.00,2013-06-02 17:00:00,
2013-06-02 13:05:00,71.2,61.7,29.80,West,262,0.0,6.0,72,0.00,,OVC060,0.08,VWS V14.00,2013-06-02 17:05:00,
2013-06-02 13:10:00,71.5,61.6,29.81,West,267,0.0,12.0,71,0.00,,OVC060,0.08,VWS V14.00,2013-06-02 17:10:00,
2013-06-02 13:15:00,72.1,62.2,29.81,SSW,213,1.0,15.0,71,0.00,,OVC060,0.08,VWS V14.00,2013-06-02 17:15:00,
2013-06-02 13:20:00,71.4,60.3,29.81,WSW,249,1.0,7.0,68,0.00,,OVC060,0.08,VWS V14.00,2013-06-02 17:20:00,
2013-06-02 13:25:00,70.6,60.3,29.81,WNW,291,0.0,10.0,70,0.00,,OVC060,0.08,VWS V14.00,2013-06-02 17:25:00,
2013-06-02 13:30:00,69.8,60.0,29.81,WSW,238,0.0,3.0,71,0.00,,OVC060,0.08,VWS V14.00,2013-06-02 17:30:00,
2013-06-02 13:35:00,69.0,59.6,29.81,West,260,0.0,7.0,72,0.00,,OVC060,0.08,VWS V14.00,2013-06-02 17:35:00,
2013-06-02 13:40:00,68.4,59.4,29.81,WSW,257,0.0,5.0,73,0.00,,OVC060,0.08,VWS V14.00,2013-06-02 17:40:00,
2013-06-02 13:45:00,68.0,59.4,29.81,WSW,252,4.0,7.0,74,0.00,,OVC060,0.08,VWS V14.00,2013-06-02 17:45:00,
2013-06-02 13:50:00,67.9,60.1,29.81,West,269,0.0,2.0,76,0.00,,OVC060,0.08,VWS V14.00,2013-06-02 17:50:00,
2013-06-02 13:55:00,68.0,59.8,29.81,West,277,0.0,8.0,75,0.00,,OVC060,0.08,VWS V14.00,2013-06-02 17:55:00,
2013-06-02 14:00:00,67.9,59.7,29.81,WSW,246,2.0,6.0,75,0.00,,OVC055,0.08,VWS V14.00,2013-06-02 18:00:00,
2013-06-02 14:05:00,67.9,60.4,29.81,SW,223,1.0,6.0,77,0.00,,OVC055,0.08,VWS V14.00,2013-06-02 18:05:00,
2013-06-02 14:10:00,68.2,60.7,29.81,SSW,200,4.0,9.0,77,0.00,,OVC055,0.08,VWS V14.00,2013-06-02 18:10:00,
2013-06-02 14:15:00,68.4,60.9,29.81,SW,236,0.0,9.0,77,0.00,,OVC055,0.08,VWS V14.00,2013-06-02 18:15:00,
2013-06-02 14:20:00,68.4,60.5,29.81,WNW,300,0.0,4.0,76,0.00,,OVC055,0.08,VWS V14.00,2013-06-02 18:20:00,
2013-06-02 14:25:00,68.6,61.5,29.81,WNW,295,0.0,4.0,78,0.00,,OVC055,0.08,VWS V14.00,2013-06-02 18:25:00,
2013-06-02 14:30:00,69.0,60.8,29.81,WNW,292,3.0,4.0,75,0.00,,OVC055,0.08,VWS V14.00,2013-06-02 18:30:00,
2013-06-02 14:35:00,69.6,60.6,29.82,West,263,6.0,15.0,73,0.00,,OVC055,0.08,VWS V14.00,2013-06-02 18:35:00,
2013-06-02 14:40:00,70.1,60.3,29.82,SW,236,4.0,6.0,71,0.00,,OVC055,0.08,VWS V14.00,2013-06-02 18:40:00,
2013-06-02 14:45:00,71.0,62.3,29.82,West,275,9.0,9.0,74,0.00,,OVC055,0.08,VWS V14.00,2013-06-02 18:45:00,
2013-06-02 14:50:00,72.2,61.1,29.82,WNW,294,6.0,17.0,68,0.00,,OVC055,0.08,VWS V14.00,2013-06-02 18:50:00,
2013-06-02 14:55:00,72.2,60.7,29.82,WSW,243,2.0,17.0,67,0.00,,OVC055,0.08,VWS V14.00,2013-06-02 18:55:00,
2013-06-02 15:00:00,71.9,58.6,29.82,WSW,257,4.0,13.0,63,0.00,,OVC045,0.08,VWS V14.00,2013-06-02 19:00:00,
2013-06-02 15:05:00,72.2,59.4,29.82,WNW,302,6.0,13.0,64,0.00,,OVC045,0.08,VWS V14.00,2013-06-02 19:05:00,
2013-06-02 15:10:00,72.7,58.9,29.82,WSW,252,3.0,12.0,62,0.00,,OVC045,0.08,VWS V14.00,2013-06-02 19:10:00,
2013-06-02 15:15:00,72.3,60.3,29.82,WNW,288,6.0,12.0,66,0.00,,OVC045,0.08,VWS V14.00,2013-06-02 19:15:00,
2013-06-02 15:20:00,71.8,59.0,29.82,WNW,299,0.0,10.0,64,0.00,,OVC045,0.08,VWS V14.00,2013-06-02 19:20:00,
2013-06-02 15:25:00,71.5,59.1,29.83,West,260,0.0,15.0,65,0.00,,OVC045,0.08,VWS V14.00,2013-06-02 19:25:00,
2013-06-02 15:30:00,71.7,59.3,29.83,NW,324,0.0,4.0,65,0.00,,OVC044,0.08,VWS V14.00,2013-06-02 19:30:00,
2013-06-02 15:35:00,72.1,59.7,29.83,WNW,283,3.0,15.0,65,0.00,,OVC044,0.08,VWS V14.00,2013-06-02 19:35:00,
2013-06-02 15:40:00,72.8,59.9,29.83,WSW,238,3.0,11.0,64,0.00,,OVC044,0.08,VWS V14.00,2013-06-02 19:40:00,
2013-06-02 15:45:00,73.0,58.8,29.83,West,267,9.0,15.0,61,0.00,,OVC044,0.08,VWS V14.00,2013-06-02 19:45:00,
2013-06-02 15:50:00,73.0,61.0,29.83,SW,224,5.0,6.0,66,0.00,,OVC044,0.08,VWS V14.00,2013-06-02 19:50:00,
2013-06-02 15:55:00,73.4,60.5,29.83,WSW,238,7.0,17.0,64,0.00,,OVC044,0.08,VWS V14.00,2013-06-02 19:55:00,
2013-06-02 16:00:00,73.3,59.5,29.83,WSW,238,4.0,12.0,62,0.00,,OVC070,0.08,VWS V14.00,2013-06-02 20:00:00,
2013-06-02 16:05:00,72.9,60.0,29.83,WNW,286,0.0,12.0,64,0.00,,OVC070,0.08,VWS V14.00,2013-06-02 20:05:00,
2013-06-02 16:10:00,72.8,59.9,29.83,West,271,3.0,6.0,64,0.00,,OVC070,0.08,VWS V14.00,2013-06-02 20:10:00,
2013-06-02 16:15:00,72.5,58.8,29.83,WSW,255,2.0,9.0,62,0.00,,OVC070,0.08,VWS V14.00,2013-06-02 20:15:00,
2013-06-02 16:20:00,71.8,58.1,29.83,WNW,288,5.0,13.0,62,0.00,,OVC070,0.08,VWS V14.00,2013-06-02 20:20:00,
2013-06-02 16:25:00,71.5,59.1,29.83,WNW,286,9.0,13.0,65,0.00,,OVC070,0.08,VWS V14.00,2013-06-02 20:25:00,
2013-06-02 16:30:00,72.4,60.4,29.83,NW,317,0.0,5.0,66,0.00,,OVC070,0.08,VWS V14.00,2013-06-02 20:30:00,
2013-06-02 16:35:00,72.8,58.6,29.83,WNW,282,4.0,12.0,61,0.00,,OVC070,0.08,VWS V14.00,2013-06-02 20:35:00,
2013-06-02 16:40:00,72.1,59.3,29.83,West,275,0.0,5.0,64,0.00,,OVC070,0.08,VWS V14.00,2013-06-02 20:40:00,
2013-06-02 16:45:00,72.3,59.5,29.83,NNW,344,0.0,13.0,64,0.00,,OVC070,0.08,VWS V14.00,2013-06-02 20:45:00,
2013-06-02 16:50:00,72.4,58.7,29.83,NW,326,0.0,11.0,62,0.00,,OVC070,0.08,VWS V14.00,2013-06-02 20:50:00,
2013-06-02 16:55:00,72.6,59.7,29.83,NNW,333,1.0,11.0,64,0.00,,OVC070,0.08,VWS V14.00,2013-06-02 20:55:00,
2013-06-02 17:00:00,72.9,59.1,29.84,West,271,0.0,10.0,62,0.00,,BKN044,0.08,VWS V14.00,2013-06-02 21:00:00,
2013-06-02 17:05:00,72.2,57.6,29.83,NW,309,0.0,12.0,60,0.00,,BKN044,0.08,VWS V14.00,2013-06-02 21:05:00,
2013-06-02 17:10:00,71.7,58.9,29.83,WSW,244,7.0,12.0,64,0.00,,BKN044,0.08,VWS V14.00,2013-06-02 21:10:00,
2013-06-02 17:15:00,71.6,57.9,29.84,North,355,0.0,12.0,62,0.00,,BKN044,0.08,VWS V14.00,2013-06-02 21:15:00,
2013-06-02 17:20:00,71.3,58.5,29.84,WNW,286,0.0,4.0,64,0.00,,BKN044,0.08,VWS V14.00,2013-06-02 21:20:00,
2013-06-02 17:25:00,71.5,58.3,29.83,WSW,250,10.0,11.0,63,0.00,,BKN044,0.08,VWS V14.00,2013-06-02 21:25:00,
2013-06-02 17:30:00,71.3,57.2,29.84,West,280,9.0,10.0,61,0.00,,BKN044,0.08,VWS V14.00,2013-06-02 21:30:00,
2013-06-02 17:35:00,71.0,57.3,29.84,NNW,335,7.0,11.0,62,0.00,,BKN044,0.08,VWS V14.00,2013-06-02 21:35:00,
2013-06-02 17:40:00,71.3,56.7,29.83,WNW,290,2.0,11.0,60,0.00,,BKN044,0.08,VWS V14.00,2013-06-02 21:40:00,
2013-06-02 17:45:00,71.3,57.6,29.83,NW,304,0.0,11.0,62,0.00,,BKN044,0.08,VWS V14.00,2013-06-02 21:45:00,
2013-06-02 17:50:00,71.2,58.0,29.83,NNW,336,2.0,10.0,63,0.00,,BKN044,0.08,VWS V14.00,2013-06-02 21:50:00,
2013-06-02 17:55:00,71.1,57.9,29.83,WNW,290,3.0,15.0,63,0.00,,BKN044,0.08,VWS V14.00,2013-06-02 21:55:00,
2013-06-02 18:00:00,70.9,56.8,29.83,WNW,284,11.0,11.0,61,0.00,,FEW036,0.08,VWS V14.00,2013-06-02 22:00:00,
2013-06-02 18:05:00,70.2,56.6,29.84,NNW,337,0.0,14.0,62,0.00,,FEW036,0.08,VWS V14.00,2013-06-02 22:05:00,
2013-06-02 18:10:00,70.0,57.3,29.84,NW,314,3.0,6.0,64,0.00,,FEW036,0.08,VWS V14.00,2013-06-02 22:10:00,
2013-06-02 18:15:00,70.5,57.3,29.83,NW,314,0.0,6.0,63,0.00,,FEW036,0.08,VWS V14.00,2013-06-02 22:15:00,
2013-06-02 18:20:00,70.0,56.8,29.84,NNW,329,0.0,9.0,63,0.00,,FEW036,0.08,VWS V14.00,2013-06-02 22:20:00,
2013-06-02 18:25:00,69.4,57.1,29.83,North,10,0.0,9.0,65,0.00,,FEW036,0.08,VWS V14.00,2013-06-02 22:25:00,
2013-06-02 18:30:00,69.2,56.1,29.84,NW,325,0.0,7.0,63,0.00,,FEW036,0.08,VWS V14.00,2013-06-02 22:30:00,
2013-06-02 18:35:00,69.0,55.9,29.84,WNW,289,0.0,12.0,63,0.00,,FEW036,0.08,VWS V14.00,2013-06-02 22:35:00,
2013-06-02 18:40:00,69.3,56.2,29.84,West,279,7.0,15.0,63,0.00,,FEW036,0.08,VWS V14.00,2013-06-02 22:40:00,
2013-06-02 18:45:00,69.3,56.6,29.84,NNW,336,0.0,15.0,64,0.00,,FEW036,0.08,VWS V14.00,2013-06-02 22:45:00,
2013-06-02 18:50:00,68.7,56.0,29.84,NW,309,2.0,4.0,64,0.00,,FEW036,0.08,VWS V14.00,2013-06-02 22:50:00,
2013-06-02 18:55:00,68.1,55.9,29.84,NW,325,5.0,7.0,65,0.00,,FEW036,0.08,VWS V14.00,2013-06-02 22:55:00,
2013-06-02 19:00:00,67.9,55.7,29.84,WNW,294,0.0,1.0,65,0.00,,SCT038,0.08,VWS V14.00,2013-06-02 23:00:00,
2013-06-02 19:05:00,68.1,55.9,29.84,NW,321,4.0,10.0,65,0.00,,SCT038,0.08,VWS V14.00,2013-06-02 23:05:00,
2013-06-02 19:10:00,68.2,56.0,29.84,NW,321,3.0,12.0,65,0.00,,SCT038,0.08,VWS V14.00,2013-06-02 23:10:00,
2013-06-02 19:15:00,68.1,56.3,29.84,WNW,297,2.0,12.0,66,0.00,,SCT038,0.08,VWS V14.00,2013-06-02 23:15:00,
2013-06-02 19:20:00,67.9,56.1,29.84,NW,311,5.0,5.0,66,0.00,,SCT038,0.08,VWS V14.00,2013-06-02 23:20:00,
2013-06-02 19:25:00,67.5,55.8,29.85,NNW,335,4.0,10.0,66,0.00,,SCT038,0.08,VWS V14.00,2013-06-02 23:25:00,
2013-06-02 19:30:00,66.9,55.6,29.85,NW,325,3.0,9.0,67,0.00,,SCT038,0.08,VWS V14.00,2013-06-02 23:30:00,
2013-06-02 19:35:00,66.2,54.9,29.85,NW,309,2.0,12.0,67,0.00,,SCT038,0.08,VWS V14.00,2013-06-02 23:35:00,
2013-06-02 19:40:00,65.7,55.3,29.86,NNW,333,0.0,7.0,69,0.00,,SCT038,0.08,VWS V14.00,2013-06-02 23:40:00,
2013-06-02 19:45:00,65.2,54.8,29.86,NNW,347,0.0,10.0,69,0.00,,SCT038,0.08,VWS V14.00,2013-06-02 23:45:00,
2013-06-02 19:50:00,64.8,54.8,29.86,NW,317,1.0,5.0,70,0.00,,SCT038,0.08,VWS V14.00,2013-06-02 23:50:00,
2013-06-02 19:55:00,64.5,54.1,29.87,NW,319,7.0,13.0,69,0.00,,SCT038,0.08,VWS V14.00,2013-06-02 23:55:00,
2013-06-02 20:00:00,64.1,54.1,29.87,NNW,331,1.0,8.0,70,0.00,,BKN034,0.08,VWS V14.00,2013-06-03 00:00:00,
2013-06-02 20:05:00,63.6,53.7,29.87,NW,322,4.0,8.0,70,0.00,,BKN034,0.08,VWS V14.00,2013-06-03 00:05:00,
2013-06-02 20:10:00,63.2,53.7,29.87,NNW,330,2.0,9.0,71,0.00,,BKN034,0.08,VWS V14.00,2013-06-03 00:10:00,
2013-06-02 20:15:00,62.8,53.7,29.87,NNW,329,3.0,10.0,72,0.00,,BKN034,0.08,VWS V14.00,2013-06-03 00:15:00,
2013-06-02 20:20:00,62.3,52.8,29.88,NNW,337,5.0,6.0,71,0.00,,BKN034,0.08,VWS V14.00,2013-06-03 00:20:00,
2013-06-02 20:25:00,61.9,52.8,29.87,NNW,334,3.0,10.0,72,0.00,,BKN034,0.08,VWS V14.00,2013-06-03 00:25:00,
2013-06-02 20:30:00,61.5,52.4,29.88,NW,317,0.0,5.0,72,0.00,,BKN034,0.08,VWS V14.00,2013-06-03 00:30:00,
2013-06-02 20:35:00,61.1,52.4,29.89,West,273,0.0,7.0,73,0.00,,BKN034,0.08,VWS V14.00,2013-06-03 00:35:00,
2013-06-02 20:40:00,60.7,52.4,29.88,North,360,0.0,2.0,74,0.00,,BKN034,0.08,VWS V14.00,2013-06-03 00:40:00,
2013-06-02 20:45:00,60.4,52.5,29.89,NNW,336,2.0,4.0,75,0.00,,BKN034,0.08,VWS V14.00,2013-06-03 00:45:00,
2013-06-02 20:50:00,60.0,52.1,29.89,WNW,292,0.0,5.0,75,0.00,,BKN034,0.08,VWS V14.00,2013-06-03 00:50:00,
2013-06-02 20:55:00,59.6,51.7,29.89,NW,318,0.0,5.0,75,0.00,,BKN034,0.08,VWS V14.00,2013-06-03 00:55:00,
2013-06-02 21:00:00,59.3,51.4,29.89,NNW,338,0.0,3.0,75,0.00,,OVC032,0.08,VWS V14.00,2013-06-03 01:00:00,
2013-06-02 21:05:00,59.3,51.4,29.89,NW,313,3.0,5.0,75,0.00,,OVC032,0.08,VWS V14.00,2013-06-03 01:05:00,
2013-06-02 21:10:00,59.3,51.4,29.89,NW,320,0.0,6.0,75,0.00,,OVC032,0.08,VWS V14.00,2013-06-03 01:10:00,
2013-06-02 21:15:00,59.2,50.9,29.89,NW,322,0.0,6.0,74,0.00,,OVC032,0.08,VWS V14.00,2013-06-03 01:15:00,
2013-06-02 21:20:00,59.1,50.8,29.90,NW,316,0.0,10.0,74,0.00,,OVC032,0.08,VWS V14.00,2013-06-03 01:20:00,
2013-06-02 21:25:00,59.0,51.1,29.90,NNW,341,0.0,10.0,75,0.00,,OVC032,0.08,VWS V14.00,2013-06-03 01:25:00,
2013-06-02 21:30:00,59.0,51.1,29.90,North,355,0.0,4.0,75,0.00,,OVC032,0.08,VWS V14.00,2013-06-03 01:30:00,
2013-06-02 21:35:00,59.0,51.5,29.90,North,5,0.0,6.0,76,0.00,,OVC032,0.08,VWS V14.00,2013-06-03 01:35:00,
2013-06-02 21:40:00,59.0,51.1,29.91,NNW,342,0.0,5.0,75,0.00,,OVC032,0.08,VWS V14.00,2013-06-03 01:40:00,
2013-06-02 21:45:00,58.8,50.5,29.91,North,355,0.0,10.0,74,0.00,,OVC032,0.08,VWS V14.00,2013-06-03 01:45:00,
2013-06-02 21:50:00,58.6,50.3,29.91,North,355,3.0,3.0,74,0.00,,OVC032,0.08,VWS V14.00,2013-06-03 01:50:00,
2013-06-02 21:55:00,58.5,50.6,29.91,NW,321,0.0,4.0,75,0.00,,OVC032,0.08,VWS V14.00,2013-06-03 01:55:00,
2013-06-02 22:00:00,58.4,50.5,29.91,NNW,336,0.0,0.0,75,0.00,,BKN030,0.08,VWS V14.00,2013-06-03 02:00:00,
2013-06-02 22:05:00,58.2,50.3,29.92,NW,311,0.0,5.0,75,0.00,,BKN030,0.08,VWS V14.00,2013-06-03 02:05:00,
2013-06-02 22:10:00,58.1,49.9,29.92,NW,316,2.0,3.0,74,0.00,,BKN030,0.08,VWS V14.00,2013-06-03 02:10:00,
2013-06-02 22:15:00,58.0,49.8,29.92,NNW,343,0.0,3.0,74,0.00,,BKN030,0.08,VWS V14.00,2013-06-03 02:15:00,
2013-06-02 22:20:00,57.8,49.2,29.92,NNW,345,0.0,3.0,73,0.00,,BKN030,0.08,VWS V14.00,2013-06-03 02:20:00,
2013-06-02 22:25:00,57.6,49.0,29.92,NNE,19,1.0,9.0,73,0.00,,BKN030,0.08,VWS V14.00,2013-06-03 02:25:00,
2013-06-02 22:30:00,57.5,48.9,29.92,North,350,0.0,4.0,73,0.00,,BKN028,0.08,VWS V14.00,2013-06-03 02:30:00,
2013-06-02 22:35:00,57.3,48.7,29.92,NNE,14,0.0,11.0,73,0.00,,BKN028,0.08,VWS V14.00,2013-06-03 02:35:00,
2013-06-02 22:40:00,57.2,48.6,29.93,North,360,0.0,0.0,73,0.00,,BKN028,0.08,VWS V14.00,2013-06-03 02:40:00,
2013-06-02 22:45:00,57.0,48.4,29.93,NNW,346,0.0,5.0,73,0.00,,BKN028,0.08,VWS V14.00,2013-06-03 02:45:00,
2013-06-02 22:50:00,56.9,48.7,29.93,North,11,0.0,2.0,74,0.00,,BKN028,0.08,VWS V14.00,2013-06-03 02:50:00,
2013-06-02 22:55:00,56.8,48.6,29.94,NW,326,0.0,7.0,74,0.00,,BKN028,0.08,VWS V14.00,2013-06-03 02:55:00,
2013-06-02 23:00:00,56.6,48.4,29.94,NNW,348,0.0,0.0,74,0.00,,OVC028,0.08,VWS V14.00,2013-06-03 03:00:00,
2013-06-02 23:05:00,56.4,48.6,29.94,NNE,17,0.0,4.0,75,0.00,,OVC028,0.08,VWS V14.00,2013-06-03 03:05:00,
2013-06-02 23:10:00,56.4,48.6,29.94,NNW,338,0.0,0.0,75,0.00,,OVC028,0.08,VWS V14.00,2013-06-03 03:10:00,
2013-06-02 23:14:00,56.3,48.8,29.94,North,351,0.0,5.0,76,0.00,,OVC028,0.08,VWS V14.00,2013-06-03 03:14:00,
2013-06-02 23:19:00,56.3,48.5,29.95,NNW,336,1.0,5.0,75,0.00,,OVC028,0.08,VWS V14.00,2013-06-03 03:19:00,
2013-06-02 23:24:00,56.2,48.0,29.94,NNW,348,0.0,5.0,74,0.00,,OVC028,0.08,VWS V14.00,2013-06-03 03:24:00,
2013-06-02 23:29:00,56.2,48.0,29.95,NNW,344,0.0,0.0,74,0.00,,OVC028,0.08,VWS V14.00,2013-06-03 03:29:00,
2013-06-02 23:34:00,56.1,47.9,29.95,North,351,0.0,5.0,74,0.00,,OVC028,0.08,VWS V14.00,2013-06-03 03:34:00,
2013-06-02 23:39:00,56.1,47.9,29.95,NNW,336,0.0,5.0,74,0.00,,OVC028,0.08,VWS V14.00,2013-06-03 03:39:00,
2013-06-02 23:44:00,56.0,47.8,29.95,North,349,0.0,5.0,74,0.00,,OVC028,0.08,VWS V14.00,2013-06-03 03:44:00,
2013-06-02 23:49:00,56.0,48.2,29.95,NNW,332,0.0,4.0,75,0.00,,OVC028,0.08,VWS V14.00,2013-06-03 03:49:00,
2013-06-02 23:54:00,56.0,48.2,29.95,NNW,344,0.0,4.0,75,0.00,,OVC028,0.08,VWS V14.00,2013-06-03 03:54:00,
2013-06-02 23:59:00,55.9,47.7,29.95,NNW,344,0.0,1.0,74,0.00,,OVC028,0.00,VWS V14.00,2013-06-03 03:59:00,